메인 페이지
METAR-TAF:

METAR-TAF

공항 :

와가두구, 부르키나파소

위도: 12-21N, 경도: 001-31W, 고도: 316m

현재 날씨관측

예보는 1 시간 2분 전, 22:00시(UTC)에 발표되었습니다.
동북동4kt
온도 31°C
습도 46%
기압 1013 hPa
시정 10km 이상
1500m 미만 상공 구름 및 적란운 없음

METAR: DFFD 282200Z 06004KT CAVOK 31/18 Q1013 NOSIG

시각: 23:02 (23:02 UTC)

예보

예보는 6 시간 2분 전, 17:00시(UTC)에 발표되었습니다.
예보 대상 시간: 28일 18시부터 29일 24시까지 (UTC)
8kt
시정 10km 이상
1500m 미만 상공 구름 및 적란운 없음
확률 30% :
일시적
29일 20시부터 29일 24시까지 (UTC)
고도 2600ft 상공 구름 조금
고도 3300ft 상공 구름 조금, 적란운.
뇌우

TAF: DFFD 281700Z 2818/2924 35008KT CAVOK PROB30 TEMPO 2920/2924 TS FEW026 FEW033CB

4,000개 이상의 공항 관측 자료 및 예보 (METAR 및 TAF 보고).

지도상에서 검색 가능한 기상관측소가 노란 점과 빨간 점으로 표시되어 있습니다.

기상관측소 명을 보려면 표시 위로 마우스를 이동하세요.

날씨 관측과 예보를 보려면 클릭하세요.

지도 변경 : 확대하려면 엑스 표시가 있는 녹색 버튼, 축소하려면 빼기 표시가 있는 녹색 버튼, 다음 페이지의 지도를 보려면 녹색 화살표를 클릭하세요.


METAR-TAF: